Time;durP1;ratioP1;P1;durP2;ratioP2;P2;SDS_P1;SDS_P2;PMS_P1;PMS_P2;Temp;Humidity;BMP_temperature;BMP_pressure;BME280_temperature;BME280_humidity;BME280_pressure;Samples;Min_cycle;Max_cycle;Signal;HPM_P1;HPM_P2
2021/06/24 00:00:12;;;;;;;0.40;0.20;;;16.20;99.90;;;;;;4973429;28;20471;-77
2021/06/24 00:02:38;;;;;;;0.40;0.20;;;16.30;99.90;;;;;;4973792;28;20428;-77
2021/06/24 00:05:06;;;;;;;0.40;0.30;;;15.90;99.90;;;;;;4974597;28;20733;-76
2021/06/24 00:07:31;;;;;;;0.40;0.20;;;16.10;99.90;;;;;;4957009;28;20486;-77
2021/06/24 00:09:57;;;;;;;0.40;0.20;;;16.00;99.90;;;;;;4974542;28;20392;-77
2021/06/24 00:12:23;;;;;;;0.40;0.30;;;16.00;99.90;;;;;;4973988;28;20487;-76
2021/06/24 00:14:48;;;;;;;0.40;0.30;;;16.20;99.90;;;;;;4974481;28;20424;-76
2021/06/24 00:17:14;;;;;;;0.40;0.30;;;16.10;99.90;;;;;;4973637;28;20408;-77
2021/06/24 00:19:40;;;;;;;0.40;0.20;;;16.00;99.90;;;;;;4973766;28;20544;-75
2021/06/24 00:22:05;;;;;;;0.40;0.20;;;16.00;99.90;;;;;;4974222;28;20573;-76
2021/06/24 00:24:31;;;;;;;0.40;0.30;;;15.90;99.90;;;;;;4973713;28;20405;-75
2021/06/24 00:26:57;;;;;;;0.40;0.30;;;15.90;99.90;;;;;;4956958;28;20400;-75
2021/06/24 00:29:22;;;;;;;0.40;0.30;;;16.00;99.90;;;;;;4973651;28;20407;-76
2021/06/24 00:31:48;;;;;;;0.40;0.20;;;15.90;99.90;;;;;;4974748;28;20418;-76
2021/06/24 00:34:14;;;;;;;0.40;0.20;;;15.90;99.90;;;;;;4973370;28;20479;-76
2021/06/24 00:36:39;;;;;;;0.40;0.30;;;15.90;99.90;;;;;;4956535;28;20404;-75
2021/06/24 00:39:05;;;;;;;0.40;0.20;;;15.80;99.90;;;;;;4956421;28;20396;-76
2021/06/24 00:41:31;;;;;;;0.40;0.30;;;15.90;99.90;;;;;;4973206;28;20408;-75
2021/06/24 00:43:56;;;;;;;0.40;0.20;;;15.90;99.90;;;;;;4974088;28;20486;-75
2021/06/24 00:46:22;;;;;;;0.40;0.30;;;15.80;99.90;;;;;;4972232;28;20443;-75
2021/06/24 00:48:56;;;;;;;0.40;0.20;;;15.80;99.90;;;;;;4974002;28;20434;-76
2021/06/24 00:51:22;;;;;;;0.40;0.30;;;15.70;99.90;;;;;;4973402;28;20845;-76
2021/06/24 00:53:48;;;;;;;0.40;0.30;;;15.80;99.90;;;;;;4973541;28;20400;-76
2021/06/24 00:56:27;;;;;;;0.40;0.30;;;15.70;99.90;;;;;;4972916;28;20911;-81
2021/06/24 00:58:53;;;;;;;0.40;0.30;;;15.70;99.90;;;;;;4954374;29;20398;-75
2021/06/24 01:01:18;;;;;;;0.40;0.20;;;15.70;99.90;;;;;;4967023;28;20403;-75
2021/06/24 01:03:44;;;;;;;0.40;0.30;;;15.50;99.90;;;;;;4974080;28;20419;-75
2021/06/24 01:06:09;;;;;;;0.40;0.30;;;15.60;99.90;;;;;;4974162;28;20427;-79
2021/06/24 01:08:35;;;;;;;0.40;0.30;;;15.60;99.90;;;;;;4973517;28;20401;-75
2021/06/24 01:11:01;;;;;;;0.40;0.30;;;15.60;99.90;;;;;;4972859;28;20380;-76
2021/06/24 01:13:28;;;;;;;0.40;0.30;;;15.60;99.90;;;;;;4974321;28;20411;-76
2021/06/24 01:15:54;;;;;;;0.40;0.20;;;15.60;99.90;;;;;;4976366;28;20397;-75
2021/06/24 01:18:19;;;;;;;0.40;0.20;;;15.60;99.90;;;;;;4972784;28;20405;-75
2021/06/24 01:20:45;;;;;;;0.40;0.28;;;15.50;99.90;;;;;;4972825;28;20399;-75
2021/06/24 01:23:11;;;;;;;0.40;0.20;;;15.50;99.90;;;;;;4973670;28;20419;-80
2021/06/24 01:25:37;;;;;;;0.40;0.30;;;15.50;99.90;;;;;;4973340;28;20398;-75
2021/06/24 01:28:06;;;;;;;0.40;0.20;;;15.50;99.90;;;;;;4973432;28;21041;-75
2021/06/24 01:30:32;;;;;;;0.40;0.20;;;15.50;99.90;;;;;;4972802;28;20396;-76
2021/06/24 01:32:58;;;;;;;0.40;0.20;;;15.50;99.90;;;;;;4955878;28;20509;-75
2021/06/24 01:35:26;;;;;;;0.40;0.20;;;15.60;99.90;;;;;;4972799;28;20400;-75
2021/06/24 01:38:01;;;;;;;0.40;0.30;;;15.50;99.90;;;;;;4973143;28;20797;-75
2021/06/24 01:40:27;;;;;;;0.40;0.20;;;15.50;99.90;;;;;;4972315;28;20483;-75
2021/06/24 01:42:54;;;;;;;0.40;0.30;;;15.50;99.90;;;;;;4973112;28;20437;-75
2021/06/24 01:45:20;;;;;;;0.40;0.20;;;15.40;99.90;;;;;;4972537;28;20487;-75
2021/06/24 01:47:46;;;;;;;0.40;0.30;;;15.40;99.90;;;;;;4973525;28;20395;-75
2021/06/24 01:50:12;;;;;;;0.40;0.30;;;15.50;99.90;;;;;;4955767;28;20495;-75
2021/06/24 01:52:45;;;;;;;0.40;0.30;;;15.50;99.90;;;;;;4973005;28;20420;-75
2021/06/24 01:55:13;;;;;;;0.40;0.20;;;15.50;99.90;;;;;;4972941;28;20476;-75
2021/06/24 01:57:39;;;;;;;0.40;0.20;;;15.40;99.90;;;;;;4972248;28;20459;-75
2021/06/24 02:00:07;;;;;;;0.40;0.30;;;15.40;99.90;;;;;;4955282;28;20393;-76
2021/06/24 02:02:33;;;;;;;0.40;0.30;;;15.40;99.90;;;;;;4972533;28;20420;-75
2021/06/24 02:04:59;;;;;;;0.40;0.30;;;15.40;99.90;;;;;;4954743;28;20760;-75
2021/06/24 02:07:24;;;;;;;0.40;0.20;;;15.30;99.90;;;;;;4971983;28;20407;-75
2021/06/24 02:09:50;;;;;;;0.40;0.30;;;15.20;99.90;;;;;;4955420;28;20401;-75
2021/06/24 02:12:16;;;;;;;0.40;0.30;;;15.20;99.90;;;;;;4982519;28;20470;-79
2021/06/24 02:14:42;;;;;;;0.40;0.30;;;15.40;99.90;;;;;;4983665;28;20419;-75
2021/06/24 02:17:07;;;;;;;0.40;0.20;;;15.40;99.90;;;;;;4973199;28;20444;-75
2021/06/24 02:19:33;;;;;;;0.40;0.20;;;15.40;99.90;;;;;;4971756;28;20843;-75
2021/06/24 02:21:59;;;;;;;0.40;0.30;;;15.40;99.90;;;;;;4972485;28;20451;-75
2021/06/24 02:24:24;;;;;;;0.40;0.30;;;15.50;99.90;;;;;;4971813;28;20420;-76
2021/06/24 02:26:50;;;;;;;0.40;0.30;;;15.50;99.90;;;;;;4971970;28;20431;-75
2021/06/24 02:29:16;;;;;;;0.40;0.20;;;15.50;99.90;;;;;;4972080;28;20781;-79
2021/06/24 02:31:41;;;;;;;0.40;0.30;;;15.50;99.90;;;;;;4971882;28;20400;-75
2021/06/24 02:34:07;;;;;;;0.40;0.30;;;15.60;99.90;;;;;;4954932;28;20951;-75
2021/06/24 02:36:33;;;;;;;0.40;0.20;;;15.60;99.90;;;;;;4971671;28;20931;-75
2021/06/24 02:38:59;;;;;;;0.40;0.20;;;15.50;99.90;;;;;;4972173;28;20449;-75
2021/06/24 02:41:24;;;;;;;0.40;0.20;;;15.50;99.90;;;;;;4971125;28;20479;-75
2021/06/24 02:43:50;;;;;;;0.40;0.30;;;15.60;99.90;;;;;;4972642;28;20400;-75
2021/06/24 02:46:16;;;;;;;0.40;0.20;;;15.60;99.90;;;;;;4971944;28;20784;-79
2021/06/24 02:48:41;;;;;;;0.40;0.30;;;15.50;99.90;;;;;;4953969;28;20393;-75
2021/06/24 02:51:07;;;;;;;0.40;0.20;;;15.50;99.90;;;;;;4972389;28;20880;-75
2021/06/24 02:53:33;;;;;;;0.40;0.30;;;15.40;99.90;;;;;;4971396;28;20736;-75
2021/06/24 02:55:58;;;;;;;0.40;0.20;;;15.60;99.90;;;;;;4954984;28;20795;-75
2021/06/24 02:58:24;;;;;;;0.40;0.30;;;15.50;99.90;;;;;;4971103;28;20404;-76
2021/06/24 03:00:50;;;;;;;0.40;0.20;;;15.50;99.90;;;;;;4954781;28;20414;-75
2021/06/24 03:03:15;;;;;;;0.40;0.20;;;15.60;99.90;;;;;;4954490;28;20521;-76
2021/06/24 03:05:41;;;;;;;0.40;0.30;;;15.60;99.90;;;;;;4970780;28;20389;-75
2021/06/24 03:08:07;;;;;;;0.40;0.30;;;15.40;99.90;;;;;;4971829;28;20808;-75
2021/06/24 03:10:32;;;;;;;0.40;0.20;;;15.40;99.90;;;;;;4970961;28;20424;-76
2021/06/24 03:12:59;;;;;;;0.40;0.30;;;15.50;99.90;;;;;;4987643;28;20426;-75
2021/06/24 03:15:24;;;;;;;0.40;0.25;;;15.40;99.90;;;;;;4972522;28;20444;-75
2021/06/24 03:17:50;;;;;;;0.40;0.20;;;15.50;99.90;;;;;;4971400;28;20443;-75
2021/06/24 03:20:16;;;;;;;0.40;0.20;;;15.50;99.90;;;;;;4971523;28;20456;-75
2021/06/24 03:22:42;;;;;;;0.40;0.30;;;15.50;99.90;;;;;;4970697;28;20428;-75
2021/06/24 03:25:12;;;;;;;0.40;0.30;;;15.60;99.90;;;;;;4970533;28;21266;-75
2021/06/24 03:27:38;;;;;;;0.40;0.20;;;15.60;99.90;;;;;;4953603;28;20720;-75
2021/06/24 03:30:05;;;;;;;0.40;0.30;;;15.40;99.90;;;;;;4971636;28;20860;-75
2021/06/24 03:32:31;;;;;;;0.40;0.20;;;15.50;99.90;;;;;;4970779;28;20403;-75
2021/06/24 03:34:57;;;;;;;0.40;0.30;;;15.60;99.90;;;;;;4973915;28;20479;-75
2021/06/24 03:37:22;;;;;;;0.40;0.30;;;15.50;99.90;;;;;;4974868;28;20384;-80
2021/06/24 03:39:48;;;;;;;0.40;0.20;;;15.50;99.90;;;;;;4975262;28;20709;-75
2021/06/24 03:42:15;;;;;;;0.40;0.30;;;15.40;99.90;;;;;;4975326;28;20506;-75
2021/06/24 03:44:40;;;;;;;0.40;0.20;;;15.50;99.90;;;;;;4974571;28;20396;-76
2021/06/24 03:47:06;;;;;;;0.40;0.30;;;15.40;99.90;;;;;;4975465;28;20398;-75
2021/06/24 03:49:32;;;;;;;0.40;0.20;;;15.40;99.90;;;;;;4974477;28;20471;-75
2021/06/24 03:51:57;;;;;;;0.40;0.20;;;15.30;99.90;;;;;;4975325;28;20490;-75
2021/06/24 03:54:23;;;;;;;0.40;0.20;;;15.40;99.90;;;;;;4973866;28;20396;-79
2021/06/24 03:56:49;;;;;;;0.40;0.20;;;15.30;99.90;;;;;;4974859;28;20913;-74
2021/06/24 03:59:14;;;;;;;0.40;0.20;;;15.20;99.90;;;;;;4975461;28;20431;-75
2021/06/24 04:01:43;;;;;;;0.40;0.20;;;15.20;99.90;;;;;;4974436;28;20416;-75
2021/06/24 04:04:12;;;;;;;0.40;0.30;;;15.10;99.90;;;;;;4975196;28;20519;-74
2021/06/24 04:06:37;;;;;;;0.40;0.30;;;15.10;99.90;;;;;;4974598;28;20402;-75
2021/06/24 04:09:05;;;;;;;0.40;0.30;;;15.00;99.90;;;;;;4958346;28;20392;-75
2021/06/24 04:11:31;;;;;;;0.40;0.20;;;15.20;99.90;;;;;;4978492;28;20394;-75
2021/06/24 04:13:57;;;;;;;0.40;0.30;;;15.10;99.90;;;;;;4985769;28;20423;-74
2021/06/24 04:16:22;;;;;;;0.40;0.20;;;15.00;99.90;;;;;;4974849;28;20404;-78
2021/06/24 04:18:48;;;;;;;0.40;0.20;;;15.00;99.90;;;;;;4974902;28;20396;-75
2021/06/24 04:21:13;;;;;;;0.40;0.30;;;15.00;99.90;;;;;;4974500;28;20437;-75
2021/06/24 04:23:39;;;;;;;0.40;0.30;;;15.00;99.90;;;;;;4956660;28;20503;-74
2021/06/24 04:26:05;;;;;;;0.40;0.20;;;15.00;99.90;;;;;;4975244;28;20391;-75
2021/06/24 04:28:30;;;;;;;0.40;0.20;;;15.10;99.90;;;;;;4974133;28;20802;-75
2021/06/24 04:30:56;;;;;;;0.40;0.20;;;15.00;99.90;;;;;;4957714;28;21141;-75
2021/06/24 04:33:22;;;;;;;0.40;0.20;;;14.90;99.90;;;;;;4957881;28;20797;-74
2021/06/24 04:35:47;;;;;;;0.40;0.30;;;15.00;99.90;;;;;;4974387;28;20404;-75
2021/06/24 04:38:14;;;;;;;0.40;0.20;;;15.00;99.90;;;;;;4974297;28;20982;-75
2021/06/24 04:40:40;;;;;;;0.40;0.30;;;15.00;99.90;;;;;;4974055;28;20423;-75
2021/06/24 04:43:06;;;;;;;0.40;0.30;;;15.00;99.90;;;;;;4974593;28;20839;-76
2021/06/24 04:45:31;;;;;;;0.40;0.20;;;15.10;99.90;;;;;;4972277;28;20906;-75
2021/06/24 04:47:57;;;;;;;0.40;0.30;;;15.10;99.90;;;;;;4974667;28;20462;-74
2021/06/24 04:50:23;;;;;;;0.40;0.20;;;15.10;99.90;;;;;;4973973;28;21044;-75
2021/06/24 04:52:48;;;;;;;0.40;0.20;;;15.30;99.90;;;;;;4974052;28;20567;-75
2021/06/24 04:55:14;;;;;;;0.40;0.20;;;15.30;99.90;;;;;;4956916;28;20400;-75
2021/06/24 04:57:40;;;;;;;0.40;0.20;;;15.30;99.90;;;;;;4973572;28;20390;-75
2021/06/24 05:00:07;;;;;;;0.40;0.20;;;15.30;99.90;;;;;;4957081;28;20459;-76
2021/06/24 05:02:32;;;;;;;0.40;0.20;;;15.40;99.90;;;;;;4982483;28;20893;-75
2021/06/24 05:04:58;;;;;;;0.40;0.30;;;15.40;99.90;;;;;;4983498;28;20429;-75
2021/06/24 05:07:24;;;;;;;0.40;0.30;;;15.40;99.90;;;;;;4974682;28;20400;-78
2021/06/24 05:09:50;;;;;;;0.40;0.30;;;15.40;99.90;;;;;;4973870;28;20848;-75
2021/06/24 05:12:15;;;;;;;0.40;0.20;;;15.40;99.90;;;;;;4954909;28;21185;-77
2021/06/24 05:14:41;;;;;;;0.40;0.20;;;15.40;99.90;;;;;;4975803;28;20487;-74
2021/06/24 05:17:13;;;;;;;0.40;0.30;;;15.50;99.90;;;;;;4985533;28;20461;-74
2021/06/24 05:19:39;;;;;;;0.40;0.30;;;15.50;99.90;;;;;;4978005;28;20395;-75
2021/06/24 05:22:04;;;;;;;0.40;0.30;;;15.50;99.90;;;;;;4976622;28;20955;-74
2021/06/24 05:24:30;;;;;;;0.40;0.30;;;15.60;99.90;;;;;;4978615;28;20416;-75
2021/06/24 05:26:56;;;;;;;0.40;0.20;;;15.60;99.90;;;;;;4982413;28;20451;-73
2021/06/24 05:29:21;;;;;;;0.40;0.20;;;15.60;99.90;;;;;;4973507;28;20400;-72
2021/06/24 05:31:47;;;;;;;0.40;0.20;;;15.70;99.90;;;;;;4972684;28;20442;-74
2021/06/24 05:34:13;;;;;;;0.40;0.20;;;15.90;99.90;;;;;;4970807;28;20471;-74
2021/06/24 05:36:39;;;;;;;0.40;0.30;;;15.90;99.90;;;;;;4986702;28;20457;-74
2021/06/24 05:39:05;;;;;;;0.40;0.20;;;16.00;99.90;;;;;;4980375;28;20392;-74
2021/06/24 05:41:31;;;;;;;0.40;0.30;;;16.00;99.90;;;;;;4972143;28;20809;-74
2021/06/24 05:43:56;;;;;;;0.40;0.30;;;16.00;99.90;;;;;;4972150;28;20471;-75
2021/06/24 05:46:22;;;;;;;0.40;0.30;;;16.10;99.90;;;;;;4972917;28;20400;-75
2021/06/24 05:48:51;;;;;;;0.40;0.30;;;16.10;99.90;;;;;;4972252;28;20396;-75
2021/06/24 05:51:18;;;;;;;0.40;0.30;;;16.20;99.90;;;;;;4973319;28;20400;-73
2021/06/24 05:53:44;;;;;;;0.40;0.20;;;16.20;99.90;;;;;;4972731;28;20472;-75
2021/06/24 05:56:09;;;;;;;0.40;0.30;;;16.30;99.90;;;;;;4973376;28;20491;-75
2021/06/24 05:58:35;;;;;;;0.40;0.20;;;16.40;99.90;;;;;;4972279;28;20381;-75
2021/06/24 06:01:00;;;;;;;0.40;0.20;;;16.60;99.90;;;;;;4973540;28;20388;-74
2021/06/24 06:03:27;;;;;;;0.40;0.20;;;16.70;99.90;;;;;;4955837;28;20901;-75
2021/06/24 06:05:53;;;;;;;0.40;0.20;;;16.70;99.90;;;;;;4969689;28;20504;-74
2021/06/24 06:08:19;;;;;;;0.40;0.30;;;16.60;99.90;;;;;;4987061;28;20878;-74
2021/06/24 06:10:46;;;;;;;0.40;0.20;;;16.60;99.90;;;;;;4972655;28;20499;-74
2021/06/24 06:13:12;;;;;;;0.40;0.30;;;16.60;99.90;;;;;;4970678;28;20415;-74
2021/06/24 06:15:43;;;;;;;0.40;0.30;;;16.60;99.90;;;;;;4972957;28;20781;-74
2021/06/24 06:18:19;;;;;;;0.40;0.20;;;16.60;99.90;;;;;;4972688;28;20506;-72
2021/06/24 06:20:46;;;;;;;0.40;0.30;;;16.60;99.90;;;;;;4975458;28;20412;-72
2021/06/24 06:23:13;;;;;;;0.40;0.30;;;16.60;99.90;;;;;;4955650;28;20761;-72
2021/06/24 06:25:38;;;;;;;0.40;0.30;;;16.60;99.90;;;;;;4966821;28;20388;-72
2021/06/24 06:28:05;;;;;;;0.40;0.20;;;16.60;99.90;;;;;;4971581;28;20801;-72
2021/06/24 06:30:30;;;;;;;0.40;0.20;;;16.70;99.90;;;;;;4972397;28;20518;-75
2021/06/24 06:32:56;;;;;;;0.40;0.30;;;16.80;99.90;;;;;;4972679;28;20483;-74
2021/06/24 06:35:22;;;;;;;0.40;0.30;;;16.80;99.90;;;;;;4973123;28;20746;-74
2021/06/24 06:37:47;;;;;;;0.40;0.20;;;16.80;99.90;;;;;;4972253;28;20403;-75
2021/06/24 06:40:13;;;;;;;0.40;0.30;;;16.80;99.90;;;;;;4972759;28;20547;-75
2021/06/24 06:42:40;;;;;;;0.40;0.30;;;16.80;99.90;;;;;;4978745;28;20416;-75
2021/06/24 06:45:07;;;;;;;0.40;0.20;;;16.70;99.90;;;;;;4979219;28;20801;-74
2021/06/24 06:47:33;;;;;;;0.40;0.30;;;16.70;99.90;;;;;;4977886;28;20393;-76
2021/06/24 06:49:59;;;;;;;0.40;0.20;;;16.80;99.90;;;;;;4978584;28;20390;-75
2021/06/24 06:52:24;;;;;;;0.40;0.30;;;16.80;99.90;;;;;;4981511;28;20379;-75
2021/06/24 06:54:50;;;;;;;0.40;0.20;;;16.80;99.90;;;;;;4981330;28;20946;-75
2021/06/24 06:57:16;;;;;;;0.40;0.20;;;16.90;99.90;;;;;;4981601;28;20451;-76
2021/06/24 06:59:42;;;;;;;0.40;0.30;;;17.00;99.90;;;;;;4974764;28;20947;-74
2021/06/24 07:02:09;;;;;;;0.40;0.30;;;17.00;99.90;;;;;;4983264;28;20854;-75
2021/06/24 07:04:34;;;;;;;0.40;0.20;;;17.10;99.90;;;;;;4981748;28;20398;-76
2021/06/24 07:07:00;;;;;;;0.40;0.30;;;17.10;99.90;;;;;;4966263;28;20395;-75
2021/06/24 07:09:26;;;;;;;0.40;0.20;;;17.30;99.90;;;;;;4981985;28;20469;-75
2021/06/24 07:11:51;;;;;;;0.40;0.30;;;17.50;99.90;;;;;;4961290;28;20409;-75
2021/06/24 07:14:18;;;;;;;0.40;0.20;;;17.60;99.90;;;;;;4979721;28;20671;-75
2021/06/24 07:16:44;;;;;;;0.40;0.20;;;17.70;99.90;;;;;;4977474;28;20428;-75
2021/06/24 07:24:57;;;;;;;0.40;0.20;;;18.00;99.90;;;;;;5135468;23;20431;-82
2021/06/24 07:27:23;;;;;;;0.40;0.20;;;18.10;99.90;;;;;;5039843;28;20405;-85
2021/06/24 07:29:48;;;;;;;0.40;0.20;;;18.20;99.90;;;;;;5040115;28;20378;-81
2021/06/24 07:32:14;;;;;;;0.40;0.20;;;18.40;99.90;;;;;;5037221;28;20497;-81
2021/06/24 07:34:40;;;;;;;0.40;0.30;;;18.50;99.90;;;;;;5040074;28;20382;-81
2021/06/24 07:37:05;;;;;;;0.40;0.20;;;18.50;99.90;;;;;;5039882;28;20379;-81
2021/06/24 07:39:31;;;;;;;0.40;0.20;;;18.60;99.90;;;;;;5038533;28;21028;-81
2021/06/24 07:41:57;;;;;;;0.40;0.30;;;18.40;99.90;;;;;;5040582;28;20502;-81
2021/06/24 07:44:23;;;;;;;0.40;0.20;;;18.30;99.90;;;;;;5039981;28;20391;-81
2021/06/24 07:46:48;;;;;;;0.40;0.30;;;18.40;99.90;;;;;;5041720;28;20374;-82
2021/06/24 07:49:14;;;;;;;0.40;0.30;;;18.40;99.90;;;;;;5039223;28;20392;-81
2021/06/24 07:51:40;;;;;;;0.40;0.20;;;18.40;99.90;;;;;;5039870;28;20386;-82
2021/06/24 07:54:05;;;;;;;0.40;0.20;;;18.50;99.90;;;;;;5038912;28;20394;-82
2021/06/24 07:56:31;;;;;;;0.40;0.20;;;18.50;99.90;;;;;;5040782;28;20417;-82
2021/06/24 07:58:57;;;;;;;0.40;0.30;;;18.80;99.90;;;;;;5040467;28;20383;-82
2021/06/24 08:01:22;;;;;;;0.40;0.30;;;19.00;99.90;;;;;;5039426;28;20378;-81
2021/06/24 08:03:49;;;;;;;0.40;0.20;;;19.00;99.90;;;;;;5040095;28;20801;-81
2021/06/24 08:06:14;;;;;;;0.40;0.20;;;19.00;99.90;;;;;;5040827;28;20465;-79
2021/06/24 08:08:40;;;;;;;0.40;0.30;;;19.00;99.90;;;;;;5040539;28;20470;-82
2021/06/24 08:11:06;;;;;;;0.40;0.20;;;19.00;99.90;;;;;;5040292;28;20873;-83
2021/06/24 08:13:32;;;;;;;0.40;0.30;;;19.00;99.90;;;;;;5035322;28;20776;-82
2021/06/24 08:15:58;;;;;;;0.40;0.20;;;19.10;99.90;;;;;;5040447;28;20377;-82
2021/06/24 08:18:24;;;;;;;0.40;0.20;;;19.20;99.90;;;;;;5037524;28;20485;-82
2021/06/24 08:20:50;;;;;;;0.40;0.20;;;19.10;99.90;;;;;;5040458;28;20449;-82
2021/06/24 08:23:18;;;;;;;0.40;0.20;;;19.10;99.90;;;;;;5025416;28;20897;-82
2021/06/24 08:25:44;;;;;;;0.40;0.20;;;19.10;99.90;;;;;;5041963;28;20438;-83
2021/06/24 08:28:11;;;;;;;0.40;0.20;;;19.10;99.90;;;;;;5045060;28;20721;-83
2021/06/24 08:30:39;;;;;;;0.40;0.25;;;19.20;99.90;;;;;;5039651;28;20898;-83
2021/06/24 08:33:05;;;;;;;0.40;0.30;;;19.20;99.90;;;;;;5035520;28;20404;-83
2021/06/24 08:35:31;;;;;;;0.40;0.30;;;19.20;99.90;;;;;;5032858;28;20433;-83
2021/06/24 08:37:58;;;;;;;0.40;0.20;;;19.30;99.90;;;;;;5018675;28;20485;-83
2021/06/24 08:40:24;;;;;;;0.40;0.30;;;19.50;99.90;;;;;;5022248;28;20403;-83
2021/06/24 08:42:50;;;;;;;0.40;0.30;;;19.50;99.90;;;;;;5029335;28;20780;-84
2021/06/24 08:45:16;;;;;;;0.40;0.20;;;19.50;99.90;;;;;;5013561;28;20393;-82
2021/06/24 08:47:48;;;;;;;0.40;0.30;;;19.60;99.90;;;;;;5031111;28;20387;-83
2021/06/24 08:50:16;;;;;;;0.40;0.20;;;19.40;99.90;;;;;;5021099;28;20512;-84
2021/06/24 08:52:48;;;;;;;0.40;0.30;;;19.40;99.90;;;;;;5019184;28;20394;-85
2021/06/24 08:55:16;;;;;;;0.40;0.20;;;19.20;99.90;;;;;;5034242;28;20820;-85
2021/06/24 08:57:42;;;;;;;0.40;0.20;;;19.60;99.90;;;;;;5014607;28;20881;-84
2021/06/24 09:00:09;;;;;;;0.40;0.30;;;19.60;99.90;;;;;;5026981;28;20394;-84
2021/06/24 09:02:43;;;;;;;0.40;0.20;;;19.80;99.90;;;;;;5025910;28;20421;-82
2021/06/24 09:05:10;;;;;;;0.40;0.30;;;19.60;99.90;;;;;;5033346;28;20471;-83
2021/06/24 09:07:50;;;;;;;0.40;0.30;;;19.50;99.90;;;;;;5032557;28;20674;-81
2021/06/24 09:10:16;;;;;;;0.40;0.30;;;19.60;99.90;;;;;;5018684;28;20447;-81
2021/06/24 09:12:54;;;;;;;0.40;0.20;;;19.70;99.90;;;;;;5034235;28;20937;-81
2021/06/24 09:15:21;;;;;;;0.40;0.20;;;19.70;99.90;;;;;;5031741;28;20387;-81
2021/06/24 09:17:47;;;;;;;0.40;0.30;;;19.80;99.90;;;;;;5013499;28;20409;-81
2021/06/24 09:20:18;;;;;;;0.60;0.40;;;19.70;99.90;;;;;;5026402;28;20470;-81
2021/06/24 09:23:24;;;;;;;0.40;0.30;;;19.70;99.90;;;;;;5028582;28;20421;-81
2021/06/24 09:26:14;;;;;;;0.40;0.20;;;19.90;99.90;;;;;;4952860;28;20436;-81
2021/06/24 09:28:50;;;;;;;0.40;0.30;;;20.00;99.90;;;;;;4952144;29;20743;-81
2021/06/24 09:31:29;;;;;;;0.40;0.30;;;20.10;99.90;;;;;;4998059;28;20411;-82
2021/06/24 09:33:56;;;;;;;0.40;0.20;;;20.30;99.90;;;;;;5012247;28;20964;-81
2021/06/24 09:36:37;;;;;;;0.40;0.30;;;20.20;99.90;;;;;;5012871;28;20381;-82
2021/06/24 09:39:06;;;;;;;0.40;0.30;;;20.30;99.90;;;;;;5013121;28;20887;-82
2021/06/24 09:41:32;;;;;;;0.40;0.30;;;20.50;99.90;;;;;;5029117;28;20391;-82
2021/06/24 09:43:58;;;;;;;0.40;0.30;;;20.50;99.90;;;;;;5032448;28;20387;-76
2021/06/24 09:46:25;;;;;;;0.40;0.30;;;20.70;99.90;;;;;;5026996;28;20831;-82
2021/06/24 09:48:59;;;;;;;0.40;0.20;;;20.70;99.90;;;;;;5013311;28;20393;-82
2021/06/24 09:51:32;;;;;;;0.40;0.30;;;20.60;99.90;;;;;;5026411;28;20427;-83
2021/06/24 09:54:04;;;;;;;0.40;0.20;;;20.70;99.90;;;;;;5027561;28;20431;-80
2021/06/24 09:56:38;;;;;;;0.40;0.30;;;20.80;99.90;;;;;;5012417;28;20527;-83
2021/06/24 09:59:06;;;;;;;0.40;0.20;;;20.80;99.90;;;;;;5012983;28;20976;-82
2021/06/24 10:01:48;;;;;;;0.40;0.20;;;21.10;99.90;;;;;;5018059;28;20482;-81
2021/06/24 10:04:21;;;;;;;0.40;0.20;;;21.20;99.90;;;;;;5031494;28;20815;-82
2021/06/24 10:06:48;;;;;;;0.40;0.30;;;21.30;99.90;;;;;;5014702;28;20487;-81
2021/06/24 10:09:14;;;;;;;0.40;0.20;;;21.10;99.90;;;;;;5022791;28;20395;-82
2021/06/24 10:11:40;;;;;;;0.40;0.30;;;21.20;99.90;;;;;;5032773;28;20458;-81
2021/06/24 10:14:06;;;;;;;0.40;0.30;;;21.10;99.90;;;;;;5032261;28;20411;-82
2021/06/24 10:16:32;;;;;;;0.40;0.20;;;20.90;99.90;;;;;;5014939;28;20392;-81
2021/06/24 10:18:59;;;;;;;0.40;0.30;;;20.90;99.90;;;;;;5011463;28;20396;-76
2021/06/24 10:21:27;;;;;;;0.40;0.20;;;21.10;99.90;;;;;;5023771;28;20482;-83
2021/06/24 10:24:00;;;;;;;0.40;0.20;;;21.00;99.90;;;;;;5032019;28;20415;-82
2021/06/24 10:26:27;;;;;;;0.40;0.20;;;21.30;99.90;;;;;;5018454;28;20440;-83
2021/06/24 10:29:17;;;;;;;0.40;0.30;;;21.40;99.90;;;;;;5012528;28;20443;-79
2021/06/24 10:31:48;;;;;;;0.40;0.20;;;21.40;99.90;;;;;;5011910;28;20475;-79
2021/06/24 10:34:15;;;;;;;0.40;0.20;;;21.40;99.90;;;;;;5012488;28;20593;-80
2021/06/24 10:37:01;;;;;;;0.40;0.20;;;21.30;99.90;;;;;;5014017;28;21066;-83
2021/06/24 10:39:37;;;;;;;0.40;0.30;;;21.20;99.90;;;;;;5031268;28;20461;-82
2021/06/24 10:42:09;;;;;;;0.40;0.20;;;21.40;99.90;;;;;;5017835;28;20481;-82
2021/06/24 10:45:00;;;;;;;0.40;0.20;;;21.40;99.90;;;;;;5020633;28;20879;-81
2021/06/24 10:47:26;;;;;;;0.40;0.20;;;21.40;99.90;;;;;;5022568;28;20440;-82
2021/06/24 10:49:52;;;;;;;0.40;0.30;;;21.60;99.90;;;;;;5014525;28;20411;-81
2021/06/24 10:52:28;;;;;;;0.40;0.30;;;21.50;99.90;;;;;;5031740;28;20387;-76
2021/06/24 10:54:54;;;;;;;0.40;0.30;;;21.70;99.90;;;;;;5014507;28;20420;-78
2021/06/24 10:57:39;;;;;;;0.40;0.30;;;21.60;99.90;;;;;;5012032;28;20388;-79
2021/06/24 11:00:30;;;;;;;0.40;0.30;;;21.70;99.90;;;;;;5012027;28;20395;-75
2021/06/24 11:02:58;;;;;;;0.40;0.20;;;21.60;99.90;;;;;;5011793;28;20473;-78
2021/06/24 11:05:32;;;;;;;0.40;0.20;;;21.80;99.90;;;;;;5028706;28;20391;-76
2021/06/24 11:07:58;;;;;;;0.40;0.20;;;21.60;99.90;;;;;;5018538;28;20392;-80
2021/06/24 11:10:26;;;;;;;0.40;0.30;;;21.70;99.90;;;;;;5016871;28;20398;-80
2021/06/24 11:12:56;;;;;;;0.70;0.50;;;21.80;99.90;;;;;;5046871;28;20397;-79
2021/06/24 11:15:43;;;;;;;0.40;0.30;;;21.90;99.90;;;;;;5030763;28;20922;-81
2021/06/24 11:18:09;;;;;;;0.40;0.20;;;22.10;99.90;;;;;;5019830;28;20482;-81
2021/06/24 11:20:42;;;;;;;0.40;0.20;;;22.10;99.90;;;;;;5013096;28;20432;-79
2021/06/24 11:23:30;;;;;;;0.40;0.30;;;22.30;99.90;;;;;;5030057;28;20458;-79
2021/06/24 11:26:04;;;;;;;0.40;0.20;;;22.30;99.90;;;;;;5013696;28;20444;-75
2021/06/24 11:28:57;;;;;;;0.40;0.20;;;22.20;98.50;;;;;;5010723;28;20918;-82
2021/06/24 11:31:37;;;;;;;0.40;0.20;;;22.50;99.70;;;;;;5010124;28;20472;-74
2021/06/24 11:36:37;;;;;;;0.40;0.20;;;22.30;96.50;;;;;;5011018;28;20425;-80
2021/06/24 11:39:03;;;;;;;0.40;0.30;;;22.70;98.20;;;;;;5010846;28;20737;-82
2021/06/24 11:41:29;;;;;;;0.40;0.30;;;23.20;96.30;;;;;;5016405;28;20394;-81
2021/06/24 11:43:58;;;;;;;0.40;0.30;;;23.30;94.30;;;;;;5031182;28;20395;-80
2021/06/24 11:46:25;;;;;;;0.40;0.20;;;23.50;92.80;;;;;;5012592;28;20397;-81
2021/06/24 12:05:29;;;;;;;0.40;0.30;;;23.50;91.60;;;;;;5043353;28;20482;-78
2021/06/24 12:07:54;;;;;;;0.40;0.20;;;22.80;92.30;;;;;;5038320;28;20858;-77
2021/06/24 12:10:23;;;;;;;0.40;0.20;;;22.70;93.70;;;;;;5043061;28;20384;-79
2021/06/24 12:12:49;;;;;;;0.40;0.30;;;22.70;93.80;;;;;;5035147;28;20401;-82
2021/06/24 12:15:15;;;;;;;0.40;0.30;;;22.80;92.90;;;;;;5043999;28;20895;-77
2021/06/24 12:17:42;;;;;;;0.40;0.20;;;22.70;94.20;;;;;;5029731;28;20875;-80
2021/06/24 12:20:12;;;;;;;0.40;0.20;;;22.60;93.50;;;;;;5032422;28;20430;-78
2021/06/24 12:22:45;;;;;;;0.40;0.30;;;22.70;95.00;;;;;;5032344;28;20826;-83
2021/06/24 12:25:37;;;;;;;0.40;0.20;;;23.10;94.80;;;;;;5014093;28;20425;-80
2021/06/24 12:28:04;;;;;;;0.40;0.20;;;23.50;93.90;;;;;;5010799;28;20412;-79
2021/06/24 12:30:35;;;;;;;0.40;0.30;;;23.30;94.20;;;;;;5012368;28;20451;-81
2021/06/24 12:33:03;;;;;;;0.40;0.30;;;23.30;94.00;;;;;;5012838;28;20428;-77
2021/06/24 12:35:37;;;;;;;0.40;0.30;;;23.00;95.50;;;;;;5014856;28;20393;-76
2021/06/24 12:38:09;;;;;;;0.40;0.20;;;22.90;94.90;;;;;;5029298;28;20891;-80
2021/06/24 12:40:38;;;;;;;0.40;0.20;;;22.90;95.60;;;;;;5027047;28;20392;-76
2021/06/24 12:43:04;;;;;;;0.40;0.20;;;23.00;95.20;;;;;;5014344;28;20821;-80
2021/06/24 12:45:33;;;;;;;0.40;0.30;;;23.00;96.20;;;;;;5026738;28;20457;-78
2021/06/24 12:47:59;;;;;;;0.40;0.20;;;23.10;96.00;;;;;;5030530;28;20476;-79
2021/06/24 12:50:26;;;;;;;0.40;0.20;;;23.20;96.30;;;;;;5036429;28;20475;-80
2021/06/24 12:52:55;;;;;;;0.40;0.20;;;23.50;96.40;;;;;;5030884;28;20410;-75
2021/06/24 12:55:38;;;;;;;0.40;0.30;;;23.50;94.30;;;;;;5032381;28;20410;-79
2021/06/24 12:58:13;;;;;;;0.40;0.30;;;23.50;95.10;;;;;;5031574;28;20960;-78
2021/06/24 13:00:48;;;;;;;0.60;0.30;;;23.60;94.60;;;;;;5032559;28;20409;-81
2021/06/24 13:03:14;;;;;;;0.40;0.30;;;23.70;94.80;;;;;;5030495;28;20418;-78
2021/06/24 13:05:39;;;;;;;0.40;0.20;;;23.90;94.90;;;;;;5020299;28;20393;-77
2021/06/24 13:08:09;;;;;;;0.40;0.20;;;24.30;94.50;;;;;;5021279;28;20736;-76
2021/06/24 13:11:12;;;;;;;0.40;0.30;;;24.50;93.50;;;;;;5026861;28;20410;-79
2021/06/24 13:13:38;;;;;;;0.40;0.20;;;24.30;92.90;;;;;;5026697;28;20905;-78
2021/06/24 13:16:22;;;;;;;0.40;0.20;;;24.40;92.20;;;;;;5040771;28;20816;-76